createdAt,value
2023-03-11T00:01:41.267Z,0.00
2023-03-11T00:07:06.370Z,-0.10
2023-03-11T00:12:28.098Z,-0.20
2023-03-11T00:17:50.516Z,-0.10
2023-03-11T00:23:13.499Z,0.00
2023-03-11T00:28:35.481Z,0.00
2023-03-11T00:34:00.310Z,0.00
2023-03-11T00:39:22.085Z,0.10
2023-03-11T00:44:43.906Z,-0.10
2023-03-11T00:50:06.641Z,-0.10
2023-03-11T00:55:31.237Z,-0.10
2023-03-11T01:00:54.598Z,-0.10
2023-03-11T01:06:16.714Z,0.00
2023-03-11T01:11:38.390Z,-0.20
2023-03-11T01:17:00.150Z,0.10
2023-03-11T01:22:21.722Z,0.40
2023-03-11T01:27:44.817Z,-0.40
2023-03-11T01:33:07.783Z,-0.50
2023-03-11T01:38:29.514Z,-0.50
2023-03-11T01:43:54.943Z,1.30
2023-03-11T01:49:23.575Z,-0.20
2023-03-11T01:54:45.643Z,-0.20
2023-03-11T02:00:10.859Z,-0.50
2023-03-11T02:05:36.343Z,-0.60
2023-03-11T02:10:58.360Z,0.60
2023-03-11T02:16:20.627Z,0.00
2023-03-11T02:21:42.314Z,-0.30
2023-03-11T02:27:10.382Z,0.50
2023-03-11T02:32:32.519Z,0.10
2023-03-11T02:37:54.979Z,-0.70
2023-03-11T02:43:22.785Z,-0.90
2023-03-11T02:48:44.925Z,0.90
2023-03-11T02:54:07.723Z,1.90
2023-03-11T02:59:30.808Z,1.60
2023-03-11T03:04:54.439Z,-0.70
2023-03-11T03:10:17.296Z,-0.70
2023-03-11T03:15:39.114Z,-0.90
2023-03-11T03:21:02.337Z,-0.90
2023-03-11T03:26:23.830Z,-1.00
2023-03-11T03:31:45.832Z,-0.90
2023-03-11T03:37:08.158Z,-0.90
2023-03-11T03:42:29.772Z,-1.00
2023-03-11T03:47:51.539Z,-1.00
2023-03-11T03:53:15.239Z,-1.00
2023-03-11T03:58:38.101Z,-1.00
2023-03-11T04:04:00.031Z,-1.00
2023-03-11T04:09:22.728Z,-1.00
2023-03-11T04:14:44.801Z,-0.90
2023-03-11T04:20:08.515Z,-1.00
2023-03-11T04:25:30.615Z,-0.90
2023-03-11T04:30:52.898Z,-1.00
2023-03-11T04:36:15.806Z,-0.90
2023-03-11T04:41:37.944Z,-1.10
2023-03-11T04:47:01.595Z,-1.10
2023-03-11T04:52:24.109Z,-1.00
2023-03-11T04:57:45.922Z,-1.00
2023-03-11T05:03:09.300Z,-0.90
2023-03-11T05:08:31.588Z,-1.00
2023-03-11T05:13:53.637Z,-1.00
2023-03-11T05:19:34.088Z,-1.10
2023-03-11T05:25:01.640Z,-1.00
2023-03-11T05:30:24.480Z,-1.00
2023-03-11T05:35:46.617Z,-1.00
2023-03-11T05:41:08.967Z,-1.00
2023-03-11T05:46:32.520Z,-0.90
2023-03-11T05:51:58.068Z,-1.00
2023-03-11T05:57:23.345Z,-1.00
2023-03-11T06:02:45.761Z,-1.10
2023-03-11T06:08:10.997Z,-1.00
2023-03-11T06:13:33.053Z,-1.00
2023-03-11T06:18:54.808Z,-1.00
2023-03-11T06:24:16.726Z,-0.90
2023-03-11T06:29:38.711Z,-1.00
2023-03-11T06:35:00.394Z,-1.10
2023-03-11T06:40:21.939Z,-1.00
2023-03-11T06:45:43.836Z,-1.00
2023-03-11T06:51:05.651Z,-1.00
2023-03-11T06:56:28.105Z,-0.90
2023-03-11T07:01:55.320Z,-1.00
2023-03-11T07:07:17.403Z,-1.00
2023-03-11T07:12:39.149Z,-0.90
2023-03-11T07:18:00.946Z,-0.90
2023-03-11T07:23:22.849Z,-0.90
2023-03-11T07:28:45.056Z,-0.80
2023-03-11T07:34:11.635Z,-0.90
2023-03-11T07:39:33.115Z,-1.00
2023-03-11T07:44:54.661Z,-0.90
2023-03-11T07:50:17.395Z,-0.90
2023-03-11T07:55:39.021Z,-0.90
2023-03-11T08:01:18.303Z,-0.90
2023-03-11T08:06:41.739Z,-0.90
2023-03-11T08:12:03.436Z,-0.90
2023-03-11T08:17:27.879Z,-0.80
2023-03-11T08:22:57.953Z,-0.70
2023-03-11T08:28:20.058Z,-0.90
2023-03-11T08:33:43.209Z,-0.90
2023-03-11T08:39:05.038Z,-0.80
2023-03-11T08:44:26.679Z,-0.80
2023-03-11T08:49:48.418Z,-0.70
2023-03-11T08:55:13.490Z,-0.70
2023-03-11T09:00:34.970Z,-0.60
2023-03-11T09:06:00.504Z,-0.60
2023-03-11T09:11:22.996Z,-0.60
2023-03-11T09:16:45.024Z,-0.60
2023-03-11T09:22:06.722Z,-0.70
2023-03-11T09:27:28.197Z,-0.60
2023-03-11T09:32:50.123Z,-0.50
2023-03-11T09:38:11.531Z,-0.60
2023-03-11T09:43:44.920Z,-0.60
2023-03-11T09:49:06.242Z,-0.60
2023-03-11T09:54:57.942Z,-0.60
2023-03-11T10:00:23.843Z,-0.40
2023-03-11T10:05:46.837Z,-0.40
2023-03-11T10:11:17.490Z,-0.40
2023-03-11T10:16:50.670Z,-0.50
2023-03-11T10:22:21.492Z,-0.40
2023-03-11T10:27:51.552Z,-0.40
2023-03-11T10:33:24.798Z,-0.30
2023-03-11T10:38:49.317Z,-0.30
2023-03-11T10:44:24.045Z,-0.30
2023-03-11T10:49:45.865Z,-0.20
2023-03-11T10:55:07.893Z,0.00
2023-03-11T11:00:32.122Z,-0.20
2023-03-11T11:06:05.946Z,-0.40
2023-03-11T11:11:27.417Z,-0.40
2023-03-11T11:16:52.929Z,-0.40
2023-03-11T11:22:20.711Z,-0.40
2023-03-11T11:27:58.286Z,-0.40
2023-03-11T11:33:53.260Z,-0.40
2023-03-11T11:39:20.480Z,-0.50
2023-03-11T11:44:43.951Z,-0.50
2023-03-11T11:50:13.622Z,-0.50
2023-03-11T11:55:37.787Z,-0.40
2023-03-11T12:01:14.234Z,-0.30
2023-03-11T12:06:42.075Z,-0.20
2023-03-11T12:12:28.401Z,-0.20
2023-03-11T12:17:52.701Z,0.30
2023-03-11T12:23:22.558Z,0.10
2023-03-11T12:28:46.523Z,0.20
2023-03-11T12:34:12.349Z,0.30
2023-03-11T12:39:35.601Z,0.10
2023-03-11T12:45:55.859Z,0.30
2023-03-11T12:51:37.692Z,0.10
2023-03-11T12:57:17.522Z,0.00
2023-03-11T13:02:51.160Z,0.10
2023-03-11T13:08:19.841Z,0.00
2023-03-11T13:13:42.642Z,0.10
2023-03-11T13:19:27.219Z,0.00
2023-03-11T13:24:52.512Z,0.50
2023-03-11T13:30:28.758Z,0.40
2023-03-11T13:36:04.194Z,0.40
2023-03-11T13:41:51.382Z,0.40
2023-03-11T13:47:18.611Z,0.50
2023-03-11T13:52:50.625Z,0.50
2023-03-11T13:58:22.805Z,0.50
2023-03-11T14:03:46.240Z,0.50
2023-03-11T14:09:20.245Z,0.50
2023-03-11T14:14:44.697Z,0.50
2023-03-11T14:20:16.716Z,0.50
2023-03-11T14:25:38.587Z,0.40
2023-03-11T14:31:02.339Z,0.60
2023-03-11T14:36:23.664Z,0.70
2023-03-11T14:41:45.544Z,0.70
2023-03-11T14:47:46.089Z,0.70
2023-03-11T14:53:16.425Z,0.90
2023-03-11T14:59:08.149Z,0.90
2023-03-11T15:04:33.281Z,0.80
2023-03-11T15:09:56.121Z,0.80
2023-03-11T15:15:28.405Z,0.70
2023-03-11T15:21:20.895Z,0.70
2023-03-11T15:26:52.659Z,0.60
2023-03-11T15:32:44.243Z,0.60
2023-03-11T15:38:21.165Z,0.60
2023-03-11T15:43:49.740Z,0.80
2023-03-11T15:49:13.921Z,0.70
2023-03-11T15:54:35.818Z,0.80
2023-03-11T16:00:00.318Z,0.80
2023-03-11T16:05:23.884Z,0.60
2023-03-11T16:10:45.350Z,0.70
2023-03-11T16:16:07.682Z,0.80
2023-03-11T16:21:39.129Z,0.80
2023-03-11T16:27:00.840Z,0.60
2023-03-11T16:32:22.334Z,0.50
2023-03-11T16:37:44.110Z,0.60
2023-03-11T16:43:08.984Z,0.60
2023-03-11T16:48:30.686Z,0.60
2023-03-11T16:53:52.338Z,0.50
2023-03-11T16:59:14.058Z,0.50
2023-03-11T17:04:38.504Z,0.50
2023-03-11T17:10:00.958Z,0.50
2023-03-11T17:15:23.069Z,0.40
2023-03-11T17:20:45.849Z,0.30
2023-03-11T17:26:17.609Z,0.30
2023-03-11T17:31:39.339Z,0.20
2023-03-11T17:37:00.895Z,0.20
2023-03-11T17:42:22.533Z,0.10
2023-03-11T17:47:44.309Z,0.10
2023-03-11T17:53:06.738Z,0.00
2023-03-11T17:58:28.382Z,-0.10
2023-03-11T18:03:50.563Z,-0.10
2023-03-11T18:09:12.099Z,-0.20
2023-03-11T18:14:33.809Z,-0.20
2023-03-11T18:19:55.411Z,-0.20
2023-03-11T18:25:17.091Z,-0.30
2023-03-11T18:30:39.341Z,-0.30
2023-03-11T18:36:10.774Z,-0.40
2023-03-11T18:41:35.332Z,-0.50
2023-03-11T18:46:56.964Z,-0.60
2023-03-11T18:52:18.692Z,-0.70
2023-03-11T18:57:43.499Z,-0.70
2023-03-11T19:03:04.840Z,-0.90
2023-03-11T19:08:27.109Z,-0.90
2023-03-11T19:13:48.911Z,-1.10
2023-03-11T19:19:11.954Z,-1.10
2023-03-11T19:24:33.603Z,-1.20
2023-03-11T19:29:55.244Z,-1.30
2023-03-11T19:35:17.502Z,-1.40
2023-03-11T19:40:39.929Z,-1.50
2023-03-11T19:46:02.185Z,-1.50
2023-03-11T19:51:25.413Z,-1.60
2023-03-11T19:56:50.250Z,-1.60
2023-03-11T20:02:12.795Z,-1.70
2023-03-11T20:07:34.893Z,-1.80
2023-03-11T20:13:02.542Z,-1.90
2023-03-11T20:18:24.320Z,-1.90
2023-03-11T20:23:45.872Z,-2.00
2023-03-11T20:29:08.021Z,-2.00
2023-03-11T20:34:29.788Z,-2.10
2023-03-11T20:39:51.703Z,-2.10
2023-03-11T20:45:15.044Z,-2.10
2023-03-11T20:50:36.514Z,-2.20
2023-03-11T20:56:00.162Z,-2.20
2023-03-11T21:01:24.995Z,-2.30
2023-03-11T21:06:49.931Z,-2.20
2023-03-11T21:12:11.746Z,-2.50
2023-03-11T21:17:35.310Z,-2.50
2023-03-11T21:22:57.309Z,-2.50
2023-03-11T21:28:18.720Z,-2.60
2023-03-11T21:33:45.591Z,-2.60
2023-03-11T21:39:07.787Z,-2.70
2023-03-11T21:44:29.326Z,-2.70
2023-03-11T21:49:52.441Z,-2.80
2023-03-11T21:55:14.135Z,-2.80
2023-03-11T22:00:35.846Z,-2.80
2023-03-11T22:06:02.558Z,-2.80
2023-03-11T22:11:24.436Z,-2.80
2023-03-11T22:16:46.358Z,-2.90
2023-03-11T22:22:08.000Z,-2.90
2023-03-11T22:27:29.477Z,-2.80
2023-03-11T22:32:51.395Z,-2.90
2023-03-11T22:38:13.235Z,-2.80
2023-03-11T22:43:36.016Z,-2.90
2023-03-11T22:48:57.733Z,-2.90
2023-03-11T22:54:19.481Z,-2.90
2023-03-11T22:59:41.242Z,-3.00
2023-03-11T23:05:02.944Z,-2.90
2023-03-11T23:10:24.555Z,-3.00
2023-03-11T23:15:47.685Z,-2.90
2023-03-11T23:21:20.641Z,-3.00
2023-03-11T23:26:42.346Z,-3.00
2023-03-11T23:32:04.062Z,-3.10
2023-03-11T23:37:25.619Z,-3.10
2023-03-11T23:42:47.391Z,-3.10
2023-03-11T23:48:08.988Z,-3.00
2023-03-11T23:53:31.542Z,-3.10
2023-03-11T23:58:52.963Z,-3.10
